Time;durP1;ratioP1;P1;durP2;ratioP2;P2;SDS_P1;SDS_P2;PMS_P1;PMS_P2;Temp;Humidity;BMP_temperature;BMP_pressure;BME280_temperature;BME280_humidity;BME280_pressure;Samples;Min_cycle;Max_cycle;Signal;HPM_P1;HPM_P2
2023/01/23 00:00:27;;;;;;;12.30;4.93;;;2.70;99.90;;;;;;5135279;27;20390;-52
2023/01/23 00:02:53;;;;;;;12.50;5.05;;;2.80;99.90;;;;;;5153606;27;20448;-53
2023/01/23 00:05:19;;;;;;;13.88;6.10;;;3.10;99.90;;;;;;5153674;27;20061;-50
2023/01/23 00:07:44;;;;;;;12.85;5.47;;;3.00;99.90;;;;;;5153722;27;20046;-53
2023/01/23 00:10:11;;;;;;;11.95;5.72;;;3.00;99.90;;;;;;5135042;27;20475;-52
2023/01/23 00:12:41;;;;;;;15.77;5.50;;;3.10;99.90;;;;;;5153506;27;20035;-51
2023/01/23 00:15:08;;;;;;;15.15;5.78;;;2.70;99.90;;;;;;5153224;27;20080;-50
2023/01/23 00:17:33;;;;;;;12.45;5.78;;;3.10;99.90;;;;;;5153447;27;20379;-49
2023/01/23 00:19:59;;;;;;;14.98;6.00;;;2.80;99.90;;;;;;5153148;27;20061;-50
2023/01/23 00:22:25;;;;;;;13.38;5.72;;;3.20;99.90;;;;;;5153069;27;20438;-53
2023/01/23 00:24:51;;;;;;;11.88;5.80;;;3.10;99.90;;;;;;5134751;27;20408;-54
2023/01/23 00:27:17;;;;;;;15.30;6.47;;;2.70;99.90;;;;;;5153074;27;20039;-51
2023/01/23 00:29:44;;;;;;;13.02;6.07;;;3.00;99.90;;;;;;5134835;27;20074;-49
2023/01/23 00:32:10;;;;;;;12.75;6.45;;;2.90;99.90;;;;;;5153325;27;20081;-49
2023/01/23 00:34:37;;;;;;;10.00;5.65;;;2.80;99.90;;;;;;5153444;27;20074;-51
2023/01/23 00:37:02;;;;;;;11.88;5.45;;;2.80;99.90;;;;;;5153073;27;20043;-51
2023/01/23 00:39:28;;;;;;;14.80;5.40;;;2.70;99.90;;;;;;5152977;27;20424;-48
2023/01/23 00:41:54;;;;;;;12.95;5.50;;;2.70;99.90;;;;;;5153333;27;20085;-51
2023/01/23 00:44:19;;;;;;;13.23;5.70;;;3.10;99.90;;;;;;5153175;27;20081;-48
2023/01/23 00:46:46;;;;;;;11.20;5.18;;;3.10;99.90;;;;;;5152792;27;20118;-52
2023/01/23 00:49:11;;;;;;;12.80;5.32;;;3.00;99.90;;;;;;5153176;27;20141;-49
2023/01/23 00:51:37;;;;;;;11.38;4.88;;;2.70;99.90;;;;;;5153110;27;20478;-49
2023/01/23 00:54:03;;;;;;;13.70;5.82;;;3.00;99.90;;;;;;5144461;27;20415;-49
2023/01/23 00:56:29;;;;;;;15.07;6.63;;;2.90;99.90;;;;;;5132476;28;20043;-49
2023/01/23 00:58:55;;;;;;;12.45;5.40;;;2.70;99.90;;;;;;5132448;28;20035;-48
2023/01/23 01:01:21;;;;;;;15.05;5.55;;;2.70;99.90;;;;;;5132509;27;20042;-49
2023/01/23 01:03:48;;;;;;;12.05;5.30;;;3.00;99.90;;;;;;5135735;27;20494;-47
2023/01/23 01:06:14;;;;;;;13.77;5.25;;;2.90;99.90;;;;;;5136007;27;20047;-49
2023/01/23 01:08:40;;;;;;;12.02;5.32;;;2.90;99.90;;;;;;5135898;27;20039;-52
2023/01/23 01:11:06;;;;;;;11.73;5.40;;;2.70;99.90;;;;;;5135988;27;20049;-50
2023/01/23 01:13:32;;;;;;;10.68;4.97;;;2.70;99.90;;;;;;5135930;27;20039;-51
2023/01/23 01:16:00;;;;;;;11.57;4.97;;;2.70;99.90;;;;;;5135665;27;20108;-51
2023/01/23 01:18:26;;;;;;;17.52;5.35;;;2.70;99.90;;;;;;5135771;27;20046;-52
2023/01/23 01:20:53;;;;;;;14.00;5.80;;;3.00;99.90;;;;;;5135563;27;20039;-52
2023/01/23 01:23:19;;;;;;;18.85;5.85;;;2.70;99.90;;;;;;5135344;27;20564;-52
2023/01/23 01:25:45;;;;;;;10.25;5.20;;;3.00;99.90;;;;;;5135277;27;20031;-48
2023/01/23 01:28:11;;;;;;;11.43;4.90;;;2.80;99.90;;;;;;5135402;27;20039;-53
2023/01/23 01:30:38;;;;;;;12.95;5.35;;;2.90;99.90;;;;;;5117034;27;20050;-48
2023/01/23 01:33:04;;;;;;;12.95;5.50;;;2.90;99.90;;;;;;5117236;27;20046;-49
2023/01/23 01:35:30;;;;;;;11.45;5.50;;;2.90;99.90;;;;;;5135445;27;20118;-48
2023/01/23 01:37:57;;;;;;;10.75;4.60;;;3.00;99.90;;;;;;5117024;27;20067;-48
2023/01/23 01:40:26;;;;;;;11.60;5.32;;;2.80;99.90;;;;;;5135515;27;20383;-48
2023/01/23 01:43:01;;;;;;;13.18;5.10;;;3.00;99.90;;;;;;5116320;27;20078;-49
2023/01/23 01:46:07;;;;;;;9.95;5.38;;;3.10;99.90;;;;;;5134917;27;20043;-48
2023/01/23 01:49:04;;;;;;;10.55;4.72;;;2.80;99.90;;;;;;5110239;27;20047;-52
2023/01/23 01:51:55;;;;;;;10.68;4.85;;;3.00;99.90;;;;;;5134297;27;20494;-49
2023/01/23 01:54:27;;;;;;;13.48;5.30;;;2.70;99.90;;;;;;5134299;27;20055;-50
2023/01/23 01:57:19;;;;;;;9.27;5.35;;;2.80;99.90;;;;;;5134547;27;20047;-52
2023/01/23 01:59:47;;;;;;;12.05;5.20;;;2.70;99.90;;;;;;5134593;27;20035;-52
2023/01/23 02:02:19;;;;;;;10.38;5.22;;;3.00;99.90;;;;;;5134975;27;20053;-49
2023/01/23 02:04:47;;;;;;;;;;;2.70;99.90;;;;;;5135008;27;20391;-49
2023/01/23 02:07:35;;;;;;;11.05;5.40;;;3.10;99.90;;;;;;5116074;27;20001;-53
2023/01/23 02:10:04;;;;;;;11.45;5.10;;;2.90;99.90;;;;;;5134453;27;20047;-50
2023/01/23 02:12:31;;;;;;;11.30;4.97;;;3.00;99.90;;;;;;5134602;27;20046;-48
2023/01/23 02:14:57;;;;;;;10.07;4.80;;;2.70;99.90;;;;;;5115893;27;20122;-49
2023/01/23 02:17:23;;;;;;;10.90;4.43;;;3.00;99.90;;;;;;5115904;27;20130;-49
2023/01/23 02:20:34;;;;;;;16.02;6.55;;;2.80;99.90;;;;;;5134360;27;20067;-48
2023/01/23 02:23:14;;;;;;;9.27;5.22;;;2.90;99.90;;;;;;5110528;27;20120;-51
2023/01/23 02:25:43;;;;;;;10.57;4.85;;;3.10;99.90;;;;;;5115672;27;20065;-49
2023/01/23 02:28:12;;;;;;;12.38;4.93;;;2.70;99.90;;;;;;5115417;27;20043;-50
2023/01/23 02:30:41;;;;;;;11.18;5.28;;;3.10;99.90;;;;;;5134119;27;20047;-50
2023/01/23 02:33:19;;;;;;;10.45;4.82;;;3.00;99.90;;;;;;5133986;27;20043;-49
2023/01/23 02:35:45;;;;;;;10.38;5.68;;;3.00;99.90;;;;;;5133606;27;20043;-52
2023/01/23 02:38:11;;;;;;;11.77;5.60;;;2.80;99.90;;;;;;5115223;27;20047;-52
2023/01/23 02:40:40;;;;;;;14.50;5.43;;;2.70;99.90;;;;;;5134118;27;20031;-52
2023/01/23 02:43:08;;;;;;;9.90;5.13;;;2.70;99.90;;;;;;5133561;27;20043;-53
2023/01/23 02:45:35;;;;;;;11.98;5.57;;;2.60;99.90;;;;;;5134068;27;20126;-50
2023/01/23 02:48:02;;;;;;;12.25;5.07;;;2.80;99.90;;;;;;5133767;27;20380;-53
2023/01/23 02:50:28;;;;;;;11.48;5.82;;;2.80;99.90;;;;;;5133703;27;20422;-52
2023/01/23 02:52:54;;;;;;;11.45;5.15;;;2.90;99.90;;;;;;5133517;27;20039;-52
2023/01/23 02:55:20;;;;;;;9.85;5.43;;;2.90;99.90;;;;;;5152460;27;20521;-52
2023/01/23 02:57:47;;;;;;;11.02;4.88;;;2.90;99.90;;;;;;5154257;27;20391;-52
2023/01/23 03:00:16;;;;;;;7.97;4.55;;;2.70;99.90;;;;;;5154141;27;20465;-52
2023/01/23 03:02:42;;;;;;;10.93;5.15;;;3.00;99.90;;;;;;5136156;27;20046;-52
2023/01/23 03:05:08;;;;;;;12.02;5.22;;;2.70;99.90;;;;;;5154159;27;20039;-49
2023/01/23 03:07:34;;;;;;;11.15;4.53;;;2.70;99.90;;;;;;5154167;27;20091;-52
2023/01/23 03:10:01;;;;;;;10.65;4.65;;;2.70;99.90;;;;;;5153833;27;20042;-50
2023/01/23 03:12:27;;;;;;;10.07;4.53;;;2.70;99.90;;;;;;5153761;27;20121;-53
2023/01/23 03:14:54;;;;;;;12.63;4.90;;;2.80;99.90;;;;;;5153669;27;20126;-53
2023/01/23 03:17:21;;;;;;;10.68;5.40;;;2.80;99.90;;;;;;5153655;27;20439;-53
2023/01/23 03:19:47;;;;;;;10.02;5.30;;;3.00;99.90;;;;;;5153743;27;20113;-51
2023/01/23 03:22:13;;;;;;;8.93;4.63;;;2.90;99.90;;;;;;5135106;27;20118;-50
2023/01/23 03:24:39;;;;;;;9.38;4.97;;;2.90;99.90;;;;;;5134766;27;20038;-50
2023/01/23 03:27:05;;;;;;;9.32;5.35;;;2.70;99.90;;;;;;5153825;27;20061;-52
2023/01/23 03:32:16;;;;;;;10.57;5.00;;;2.80;99.90;;;;;;5153250;27;20051;-52
2023/01/23 03:34:42;;;;;;;13.82;5.18;;;3.00;99.90;;;;;;5134662;27;20042;-54
2023/01/23 03:37:09;;;;;;;10.18;4.93;;;2.80;99.90;;;;;;5153420;27;20479;-54
2023/01/23 03:42:20;;;;;;;11.80;5.07;;;2.90;99.90;;;;;;5153653;27;20049;-52
2023/01/23 03:44:46;;;;;;;13.88;5.25;;;3.00;99.90;;;;;;5153294;27;20042;-54
2023/01/23 03:47:12;;;;;;;12.80;5.00;;;2.90;99.90;;;;;;5117976;27;20086;-50
2023/01/23 03:49:38;;;;;;;11.50;5.30;;;2.80;99.90;;;;;;5153484;27;20050;-51
2023/01/23 03:52:03;;;;;;;9.48;4.82;;;2.70;99.90;;;;;;5153479;27;20454;-50
2023/01/23 03:54:29;;;;;;;11.63;5.38;;;2.90;99.90;;;;;;5140633;27;20039;-50
2023/01/23 03:56:55;;;;;;;14.90;5.32;;;2.90;99.90;;;;;;5132432;27;20043;-51
2023/01/23 03:59:20;;;;;;;10.38;5.22;;;3.00;99.90;;;;;;5132438;28;20064;-50
2023/01/23 04:01:47;;;;;;;14.55;5.88;;;2.70;99.90;;;;;;5132510;28;20035;-54
2023/01/23 04:04:13;;;;;;;10.40;4.65;;;3.00;99.90;;;;;;5113924;28;20031;-49
2023/01/23 04:06:38;;;;;;;9.25;4.82;;;2.70;99.90;;;;;;5132527;28;20070;-53
2023/01/23 04:09:04;;;;;;;10.23;4.72;;;3.00;99.90;;;;;;5132680;28;20461;-54
2023/01/23 04:11:30;;;;;;;9.48;4.95;;;2.70;99.90;;;;;;5114077;28;20054;-53
2023/01/23 04:13:56;;;;;;;10.90;5.55;;;2.70;99.90;;;;;;5132292;28;20035;-52
2023/01/23 04:16:22;;;;;;;8.82;4.57;;;2.70;99.90;;;;;;5132573;28;20467;-50
2023/01/23 04:18:49;;;;;;;10.75;5.75;;;2.80;99.90;;;;;;5113956;28;20043;-50
2023/01/23 04:21:15;;;;;;;11.40;5.00;;;3.00;99.90;;;;;;5132761;28;20394;-52
2023/01/23 04:23:41;;;;;;;11.63;5.35;;;2.90;99.90;;;;;;5132427;28;20040;-53
2023/01/23 04:26:06;;;;;;;9.85;4.57;;;3.00;99.90;;;;;;5113943;28;20042;-50
2023/01/23 04:28:32;;;;;;;12.90;5.38;;;2.80;99.90;;;;;;5132220;28;20403;-53
2023/01/23 04:30:58;;;;;;;9.40;5.00;;;2.70;99.90;;;;;;5132214;28;20039;-52
2023/01/23 04:33:24;;;;;;;10.85;5.03;;;2.80;99.90;;;;;;5132498;28;20054;-53
2023/01/23 04:35:55;;;;;;;11.35;5.50;;;2.90;99.90;;;;;;5132102;27;20118;-50
2023/01/23 04:38:22;;;;;;;10.27;5.43;;;3.00;99.90;;;;;;5135180;27;20091;-51
2023/01/23 04:40:49;;;;;;;9.95;5.35;;;3.00;99.90;;;;;;5135828;27;20035;-53
2023/01/23 04:43:15;;;;;;;13.23;6.32;;;2.90;99.90;;;;;;5117558;27;20083;-54
2023/01/23 04:45:42;;;;;;;10.70;5.90;;;3.00;99.90;;;;;;5135989;27;20038;-50
2023/01/23 04:48:09;;;;;;;12.70;6.38;;;2.70;99.90;;;;;;5117385;27;20058;-53
2023/01/23 04:50:35;;;;;;;13.85;6.05;;;2.70;99.90;;;;;;5135684;27;20038;-50
2023/01/23 04:53:01;;;;;;;13.90;6.07;;;2.70;99.90;;;;;;5135820;27;20113;-50
2023/01/23 04:55:27;;;;;;;10.85;6.10;;;2.90;99.90;;;;;;5155772;27;20058;-51
2023/01/23 04:57:53;;;;;;;14.90;6.75;;;2.70;99.90;;;;;;5156781;27;20039;-50
2023/01/23 05:00:20;;;;;;;13.35;6.20;;;2.90;99.90;;;;;;5156532;27;20038;-50
2023/01/23 05:02:46;;;;;;;15.70;7.43;;;3.00;99.90;;;;;;5137923;27;20117;-51
2023/01/23 05:05:12;;;;;;;14.23;6.40;;;3.00;99.90;;;;;;5156310;27;20047;-49
2023/01/23 05:07:38;;;;;;;16.75;6.80;;;2.80;99.90;;;;;;5156292;27;20388;-50
2023/01/23 05:10:05;;;;;;;12.80;7.15;;;3.00;99.90;;;;;;5156130;27;20064;-50
2023/01/23 05:12:31;;;;;;;15.30;6.88;;;3.00;99.90;;;;;;5156141;27;20049;-52
2023/01/23 05:14:57;;;;;;;15.55;7.68;;;3.00;99.90;;;;;;5137500;27;20049;-51
2023/01/23 05:17:22;;;;;;;13.68;6.70;;;3.00;99.90;;;;;;5137847;27;20061;-50
2023/01/23 05:19:48;;;;;;;13.93;7.65;;;3.00;99.90;;;;;;5156421;27;20069;-53
2023/01/23 05:22:14;;;;;;;11.80;7.05;;;3.00;99.90;;;;;;5156188;27;20470;-52
2023/01/23 05:24:39;;;;;;;12.07;6.15;;;3.00;99.90;;;;;;5155933;27;20049;-54
2023/01/23 05:27:05;;;;;;;12.98;6.97;;;2.60;99.90;;;;;;5155972;27;20066;-55
2023/01/23 05:29:31;;;;;;;14.73;7.32;;;2.80;99.90;;;;;;5156048;27;20514;-53
2023/01/23 05:31:56;;;;;;;15.82;7.80;;;2.90;99.90;;;;;;5137328;27;20043;-53
2023/01/23 05:34:22;;;;;;;13.68;6.85;;;2.60;99.90;;;;;;5156103;27;20035;-50
2023/01/23 05:36:48;;;;;;;14.52;8.00;;;2.60;99.90;;;;;;5155803;27;20042;-49
2023/01/23 05:39:13;;;;;;;13.85;7.13;;;2.80;99.90;;;;;;5137628;27;20073;-51
2023/01/23 05:41:39;;;;;;;15.95;7.88;;;3.00;99.90;;;;;;5155775;27;20070;-53
2023/01/23 05:44:04;;;;;;;13.95;6.95;;;2.60;99.90;;;;;;5155955;27;20053;-51
2023/01/23 05:46:30;;;;;;;14.25;7.63;;;2.90;99.90;;;;;;5155711;27;20049;-51
2023/01/23 05:48:56;;;;;;;14.82;7.40;;;3.00;99.90;;;;;;5155476;27;20049;-50
2023/01/23 05:51:22;;;;;;;15.40;7.82;;;2.70;99.90;;;;;;5155672;27;20046;-52
2023/01/23 05:53:48;;;;;;;15.07;7.28;;;2.60;99.90;;;;;;5148682;27;20038;-51
2023/01/23 05:56:14;;;;;;;14.98;7.32;;;2.80;99.90;;;;;;5134595;27;20055;-53
2023/01/23 05:58:40;;;;;;;15.07;7.10;;;2.70;99.90;;;;;;5135261;27;20440;-52
2023/01/23 06:01:06;;;;;;;12.57;7.28;;;2.90;99.90;;;;;;5134506;27;20042;-50
2023/01/23 06:03:31;;;;;;;14.85;7.45;;;2.70;99.90;;;;;;5134501;27;20398;-50
2023/01/23 06:06:00;;;;;;;13.70;7.20;;;2.60;99.90;;;;;;5134402;27;20047;-54
2023/01/23 06:08:26;;;;;;;13.70;6.75;;;3.00;99.90;;;;;;5134389;27;20078;-51
2023/01/23 06:10:52;;;;;;;13.35;6.95;;;2.60;99.90;;;;;;5133969;27;20122;-51
2023/01/23 06:13:18;;;;;;;16.10;7.25;;;2.60;99.90;;;;;;5134036;27;20138;-51
2023/01/23 06:15:43;;;;;;;19.83;7.20;;;2.70;99.90;;;;;;5134499;27;20068;-50
2023/01/23 06:18:09;;;;;;;16.63;7.55;;;2.70;99.90;;;;;;5134205;27;20110;-53
2023/01/23 06:20:34;;;;;;;14.35;7.70;;;2.60;99.90;;;;;;5134626;27;20035;-52
2023/01/23 06:23:00;;;;;;;14.82;7.53;;;3.00;99.90;;;;;;5134523;27;20035;-53
2023/01/23 06:25:26;;;;;;;13.10;7.10;;;2.60;99.90;;;;;;5134538;27;20043;-53
2023/01/23 06:27:51;;;;;;;12.27;7.43;;;2.90;99.90;;;;;;5081980;27;20051;-50
2023/01/23 06:30:17;;;;;;;17.20;7.90;;;2.90;99.90;;;;;;5134636;27;20502;-51
2023/01/23 06:32:43;;;;;;;17.42;8.25;;;2.90;99.90;;;;;;5134370;27;20057;-49
2023/01/23 06:35:09;;;;;;;13.02;8.65;;;3.00;99.90;;;;;;5134219;27;20050;-50
2023/01/23 06:37:35;;;;;;;14.90;7.63;;;2.90;99.90;;;;;;5134430;27;20035;-49
2023/01/23 06:40:00;;;;;;;15.32;7.93;;;2.60;99.90;;;;;;5116026;27;20031;-50
2023/01/23 06:42:26;;;;;;;15.27;7.75;;;2.70;99.90;;;;;;5134128;27;20037;-50
2023/01/23 06:44:51;;;;;;;17.10;7.82;;;3.00;99.90;;;;;;5134418;27;20127;-54
2023/01/23 06:47:18;;;;;;;14.35;8.13;;;2.70;99.90;;;;;;5115673;27;20066;-54
2023/01/23 06:49:44;;;;;;;16.80;8.18;;;2.90;99.90;;;;;;5133818;27;20039;-53
2023/01/23 06:52:09;;;;;;;16.25;8.65;;;3.00;99.90;;;;;;5133945;27;20087;-54
2023/01/23 06:54:35;;;;;;;13.30;7.35;;;2.90;99.90;;;;;;5146918;27;20041;-52
2023/01/23 06:57:01;;;;;;;13.35;7.22;;;2.60;99.90;;;;;;5135738;27;20074;-53
2023/01/23 06:59:26;;;;;;;14.60;7.47;;;3.00;99.90;;;;;;5153814;27;20035;-60
2023/01/23 07:01:52;;;;;;;15.35;7.57;;;2.80;99.90;;;;;;5154171;27;20509;-50
2023/01/23 07:04:18;;;;;;;17.85;9.05;;;2.70;99.90;;;;;;5154268;27;20041;-51
2023/01/23 07:06:43;;;;;;;14.10;8.18;;;3.00;99.90;;;;;;5154412;27;20042;-51
2023/01/23 07:09:10;;;;;;;14.95;7.68;;;2.60;99.90;;;;;;5134332;27;20043;-53
2023/01/23 07:11:36;;;;;;;14.77;8.60;;;3.00;99.90;;;;;;5115093;27;20121;-50
2023/01/23 07:14:01;;;;;;;16.38;10.30;;;2.60;99.90;;;;;;5133143;27;20043;-52
2023/01/23 07:16:27;;;;;;;19.58;12.82;;;3.10;99.90;;;;;;5133421;27;20039;-51
2023/01/23 07:18:53;;;;;;;17.23;12.45;;;2.60;99.90;;;;;;5114424;27;20043;-49
2023/01/23 07:21:19;;;;;;;19.20;9.77;;;3.00;99.90;;;;;;5114099;27;20042;-49
2023/01/23 07:23:44;;;;;;;18.10;10.55;;;3.00;99.90;;;;;;5131983;27;20091;-50
2023/01/23 07:26:11;;;;;;;16.85;9.77;;;2.70;99.90;;;;;;5138681;27;20053;-53
2023/01/23 07:28:37;;;;;;;14.93;8.63;;;2.90;99.90;;;;;;5143120;27;20042;-51
2023/01/23 07:31:04;;;;;;;18.27;10.27;;;2.60;99.90;;;;;;5140738;27;20030;-50
2023/01/23 07:33:29;;;;;;;15.10;9.20;;;2.80;99.90;;;;;;5119999;27;20039;-53
2023/01/23 07:35:55;;;;;;;20.55;9.77;;;2.60;99.90;;;;;;5137255;27;20065;-53
2023/01/23 07:38:24;;;;;;;19.17;8.65;;;2.90;99.90;;;;;;5132314;27;20039;-52
2023/01/23 07:40:51;;;;;;;18.42;10.63;;;3.00;99.90;;;;;;5132122;27;20123;-54
2023/01/23 07:43:17;;;;;;;16.92;9.15;;;3.00;99.90;;;;;;5131909;27;20499;-54
2023/01/23 07:45:43;;;;;;;17.48;8.68;;;2.70;99.90;;;;;;5132180;27;20039;-54
2023/01/23 07:48:09;;;;;;;18.30;9.75;;;2.80;99.90;;;;;;5113574;27;20127;-52
2023/01/23 07:50:36;;;;;;;16.75;8.48;;;2.80;99.90;;;;;;5131952;27;20391;-51
2023/01/23 07:53:03;;;;;;;19.50;9.00;;;3.00;99.90;;;;;;5130540;27;20065;-53
2023/01/23 07:55:29;;;;;;;14.18;8.13;;;2.90;99.90;;;;;;5111318;28;20371;-49
2023/01/23 07:57:55;;;;;;;18.80;8.90;;;3.00;99.90;;;;;;5111465;28;20115;-52
2023/01/23 08:00:21;;;;;;;15.52;8.07;;;2.70;99.90;;;;;;5116649;27;20044;-53
2023/01/23 08:02:47;;;;;;;17.13;9.05;;;2.80;99.90;;;;;;5152503;27;20109;-50
2023/01/23 08:05:12;;;;;;;15.50;8.52;;;2.80;99.90;;;;;;5151663;27;20451;-53
2023/01/23 08:07:38;;;;;;;25.65;12.85;;;3.00;99.90;;;;;;5152711;27;20510;-51
2023/01/23 08:10:05;;;;;;;27.00;14.18;;;3.00;99.90;;;;;;5152597;27;20031;-49
2023/01/23 08:12:31;;;;;;;22.05;11.38;;;2.90;99.90;;;;;;5137081;27;20585;-51
2023/01/23 08:14:56;;;;;;;16.17;8.63;;;3.10;99.90;;;;;;5156860;27;20049;-49
2023/01/23 08:17:22;;;;;;;16.17;9.45;;;3.10;99.90;;;;;;5156624;27;20118;-53
2023/01/23 08:19:48;;;;;;;15.57;8.70;;;2.90;99.90;;;;;;5156429;27;20074;-52
2023/01/23 08:22:14;;;;;;;14.40;8.70;;;2.80;99.90;;;;;;5147737;27;20690;-52
2023/01/23 08:24:39;;;;;;;12.93;7.78;;;3.10;99.90;;;;;;5146100;27;20076;-51
2023/01/23 08:27:06;;;;;;;14.98;8.10;;;3.00;99.90;;;;;;5146243;27;20027;-52
2023/01/23 08:29:32;;;;;;;13.32;7.93;;;2.90;99.90;;;;;;5117824;27;20074;-53
2023/01/23 08:31:58;;;;;;;14.48;7.55;;;2.80;99.90;;;;;;5135785;27;20074;-50
2023/01/23 08:34:24;;;;;;;13.25;7.88;;;3.10;99.90;;;;;;5144005;27;20382;-50
2023/01/23 08:36:50;;;;;;;16.73;7.90;;;3.00;99.90;;;;;;5126788;27;20046;-52
2023/01/23 08:39:16;;;;;;;14.40;7.43;;;3.00;99.90;;;;;;5126540;27;20041;-52
2023/01/23 08:41:42;;;;;;;12.70;7.47;;;3.10;99.90;;;;;;5146975;27;20039;-53
2023/01/23 08:44:08;;;;;;;13.43;6.70;;;3.20;99.90;;;;;;5145090;27;20041;-52
2023/01/23 08:46:34;;;;;;;12.88;6.80;;;3.20;99.90;;;;;;5150506;27;20367;-54
2023/01/23 08:48:59;;;;;;;17.75;7.30;;;3.20;99.90;;;;;;5156338;27;20045;-51
2023/01/23 08:51:26;;;;;;;12.32;6.43;;;3.20;99.90;;;;;;5137765;27;20049;-54
2023/01/23 08:53:52;;;;;;;11.35;6.28;;;3.00;99.90;;;;;;5148970;27;20070;-54
2023/01/23 08:56:20;;;;;;;13.95;6.70;;;3.20;99.90;;;;;;5134991;27;20043;-51
2023/01/23 08:58:46;;;;;;;12.20;6.43;;;3.30;99.90;;;;;;5135300;27;20123;-52
2023/01/23 09:01:13;;;;;;;13.13;6.25;;;3.30;99.90;;;;;;5135496;27;20039;-53
2023/01/23 09:03:39;;;;;;;12.45;5.97;;;3.30;99.90;;;;;;5135252;27;20504;-53
2023/01/23 09:06:05;;;;;;;13.18;5.60;;;3.10;99.90;;;;;;5135317;27;20131;-53
2023/01/23 09:08:31;;;;;;;10.10;5.57;;;3.30;99.90;;;;;;5135382;27;20061;-50
2023/01/23 09:11:04;;;;;;;10.32;5.22;;;3.20;99.90;;;;;;5135385;27;20035;-50
2023/01/23 09:13:30;;;;;;;9.20;4.88;;;3.10;99.90;;;;;;5134944;27;20062;-51
2023/01/23 09:15:55;;;;;;;11.00;5.50;;;3.20;99.90;;;;;;5116737;27;20159;-54
2023/01/23 09:18:21;;;;;;;10.38;5.18;;;3.20;99.90;;;;;;5143325;27;20041;-53
2023/01/23 09:20:48;;;;;;;8.13;5.00;;;3.10;99.90;;;;;;5146132;27;20031;-53
2023/01/23 09:23:14;;;;;;;9.60;4.75;;;3.30;99.90;;;;;;5117829;27;20043;-52
2023/01/23 09:25:39;;;;;;;10.60;5.03;;;3.30;99.90;;;;;;5114290;28;20066;-52
2023/01/23 09:28:05;;;;;;;11.25;4.80;;;3.20;99.90;;;;;;5113884;28;20040;-53
2023/01/23 09:30:31;;;;;;;8.70;5.28;;;3.40;99.90;;;;;;5121934;27;20087;-53
2023/01/23 09:32:57;;;;;;;8.77;5.03;;;3.30;99.90;;;;;;5142651;27;20042;-51
2023/01/23 09:35:23;;;;;;;9.90;5.38;;;3.40;99.90;;;;;;5152618;27;20038;-54
2023/01/23 09:38:03;;;;;;;13.13;4.50;;;3.40;99.90;;;;;;5145336;27;20074;-52
2023/01/23 09:40:34;;;;;;;10.70;4.72;;;3.40;99.90;;;;;;5142663;27;20091;-54
2023/01/23 09:43:21;;;;;;;7.60;4.07;;;3.40;99.90;;;;;;5144104;27;20031;-53
2023/01/23 09:45:58;;;;;;;8.68;4.88;;;3.40;99.90;;;;;;5135511;27;20055;-53
2023/01/23 09:48:51;;;;;;;8.45;4.75;;;3.40;99.90;;;;;;5122825;27;20046;-51
2023/01/23 09:51:46;;;;;;;8.57;4.43;;;3.60;99.90;;;;;;5108524;27;20052;-52
2023/01/23 09:54:42;;;;;;;7.70;3.58;;;3.50;99.90;;;;;;5114163;27;20054;-50
2023/01/23 09:57:22;;;;;;;7.53;4.00;;;3.40;99.90;;;;;;5145444;27;20156;-52
2023/01/23 10:00:11;;;;;;;7.45;3.63;;;3.50;99.90;;;;;;5143539;27;20027;-54
2023/01/23 10:02:39;;;;;;;7.95;3.85;;;3.50;99.90;;;;;;5143584;27;20440;-49
2023/01/23 10:05:12;;;;;;;6.32;3.50;;;3.50;99.90;;;;;;5139905;27;20035;-51
2023/01/23 10:08:05;;;;;;;7.70;3.78;;;3.50;99.90;;;;;;5142856;27;20086;-51
2023/01/23 10:11:07;;;;;;;7.40;3.03;;;3.50;99.90;;;;;;5113607;28;20039;-50
2023/01/23 10:13:38;;;;;;;6.10;2.97;;;3.60;99.90;;;;;;5080183;28;20052;-48
2023/01/23 10:16:20;;;;;;;7.25;4.22;;;3.60;99.90;;;;;;5113273;28;20039;-51
2023/01/23 10:19:14;;;;;;;7.22;3.70;;;3.60;99.90;;;;;;5145202;27;20123;-50
2023/01/23 10:22:02;;;;;;;6.82;3.22;;;3.70;99.90;;;;;;5149828;27;20113;-49
2023/01/23 10:24:38;;;;;;;7.38;3.95;;;3.70;99.90;;;;;;5148798;27;20117;-52
2023/01/23 10:27:17;;;;;;;8.32;4.15;;;3.70;99.90;;;;;;5154534;27;20042;-52
2023/01/23 10:30:04;;;;;;;7.88;3.97;;;3.70;99.90;;;;;;5154605;27;20054;-50
2023/01/23 10:32:41;;;;;;;7.55;3.95;;;3.70;99.90;;;;;;5133887;27;20039;-52
2023/01/23 10:35:46;;;;;;;7.55;4.03;;;3.80;99.90;;;;;;5132763;27;20117;-51
2023/01/23 10:38:38;;;;;;;8.30;4.60;;;3.80;99.90;;;;;;5136121;27;20054;-50
2023/01/23 10:41:21;;;;;;;10.10;4.50;;;3.80;99.90;;;;;;5144778;27;20031;-51
2023/01/23 10:43:50;;;;;;;7.80;4.55;;;3.90;99.90;;;;;;5140845;27;20056;-49
2023/01/23 10:46:19;;;;;;;8.75;4.85;;;4.00;99.90;;;;;;5143576;27;20410;-51
2023/01/23 10:48:48;;;;;;;10.15;5.10;;;3.90;99.90;;;;;;5140028;27;20095;-49
2023/01/23 10:51:38;;;;;;;10.32;5.32;;;4.10;99.90;;;;;;5143307;27;20034;-52
2023/01/23 10:54:13;;;;;;;10.07;4.95;;;4.00;99.90;;;;;;5142878;27;20513;-49
2023/01/23 10:56:46;;;;;;;9.90;5.60;;;4.00;99.90;;;;;;5142801;27;20047;-51
2023/01/23 10:59:29;;;;;;;9.93;5.22;;;4.00;99.90;;;;;;5141860;27;20529;-53
2023/01/23 11:02:12;;;;;;;11.02;5.75;;;4.00;99.90;;;;;;5142559;27;20031;-51
2023/01/23 11:04:38;;;;;;;9.98;6.20;;;4.20;99.90;;;;;;5143503;27;20046;-52
2023/01/23 11:07:16;;;;;;;12.20;6.35;;;4.10;99.90;;;;;;5142799;27;20087;-52
2023/01/23 11:09:51;;;;;;;9.70;5.38;;;4.20;99.90;;;;;;5142546;27;20072;-53
2023/01/23 11:12:20;;;;;;;13.15;6.65;;;4.10;99.90;;;;;;5142658;27;20037;-52
2023/01/23 11:14:47;;;;;;;11.63;5.90;;;4.20;99.90;;;;;;5104346;27;20495;-51
2023/01/23 11:17:20;;;;;;;10.13;5.88;;;4.20;99.90;;;;;;5143476;27;20041;-53
2023/01/23 11:19:48;;;;;;;10.57;6.15;;;4.20;99.90;;;;;;5127263;27;20046;-52
2023/01/23 11:22:35;;;;;;;11.07;6.18;;;4.20;99.90;;;;;;5133672;27;20069;-54
2023/01/23 11:25:26;;;;;;;11.38;6.22;;;4.20;99.90;;;;;;5141599;27;20042;-50
2023/01/23 11:28:15;;;;;;;10.73;6.10;;;4.30;99.90;;;;;;5114354;27;20052;-52
2023/01/23 11:30:54;;;;;;;10.73;5.50;;;4.20;99.90;;;;;;5099205;28;20083;-52
2023/01/23 11:33:38;;;;;;;11.45;6.20;;;4.30;99.90;;;;;;5136330;27;20065;-53
2023/01/23 11:36:18;;;;;;;13.10;6.28;;;4.30;99.90;;;;;;5143880;27;20045;-52
2023/01/23 11:38:50;;;;;;;12.98;7.00;;;4.30;99.90;;;;;;5144316;27;20435;-52
2023/01/23 11:41:15;;;;;;;12.98;6.53;;;4.30;99.90;;;;;;5140174;27;20039;-50
2023/01/23 11:43:41;;;;;;;10.73;6.50;;;4.30;99.90;;;;;;5133272;27;20038;-52
2023/01/23 11:46:36;;;;;;;12.30;7.03;;;4.20;99.90;;;;;;5132873;27;20054;-53
2023/01/23 11:49:23;;;;;;;12.38;7.57;;;4.20;99.90;;;;;;5132899;27;20039;-53
2023/01/23 11:52:06;;;;;;;12.07;6.32;;;4.30;99.90;;;;;;5133367;27;20395;-53
2023/01/23 11:54:50;;;;;;;12.88;7.50;;;4.30;99.90;;;;;;5139644;27;20401;-52
2023/01/23 11:57:30;;;;;;;11.93;6.78;;;4.30;99.90;;;;;;5094566;28;20128;-51
2023/01/23 12:00:05;;;;;;;14.93;8.02;;;4.30;99.90;;;;;;5120746;27;20042;-50
2023/01/23 12:02:58;;;;;;;13.23;6.80;;;4.30;99.90;;;;;;5104156;27;20523;-49
2023/01/23 12:05:42;;;;;;;12.90;6.93;;;4.30;99.90;;;;;;5145480;27;20042;-53
2023/01/23 12:08:36;;;;;;;12.13;6.88;;;4.40;99.90;;;;;;5134440;27;20657;-49
2023/01/23 12:11:15;;;;;;;13.02;7.28;;;4.30;99.90;;;;;;5134603;27;20050;-51
2023/01/23 12:14:20;;;;;;;11.35;6.90;;;4.30;99.90;;;;;;5149786;27;20499;-49
2023/01/23 12:16:55;;;;;;;12.20;7.03;;;4.40;99.90;;;;;;5139638;27;20036;-50
2023/01/23 12:19:33;;;;;;;12.68;6.60;;;4.30;99.90;;;;;;5144701;27;20086;-49
2023/01/23 12:22:09;;;;;;;12.50;6.55;;;4.40;99.90;;;;;;5122531;27;20079;-53
2023/01/23 12:24:59;;;;;;;11.75;7.25;;;4.40;99.90;;;;;;5143383;27;20037;-50
2023/01/23 12:27:44;;;;;;;13.77;7.10;;;4.30;99.90;;;;;;5153133;27;20439;-49
2023/01/23 12:30:45;;;;;;;13.57;7.35;;;4.40;99.90;;;;;;5153376;27;20049;-52
2023/01/23 12:33:48;;;;;;;11.27;6.30;;;4.40;99.90;;;;;;5109334;27;20107;-49
2023/01/23 12:36:32;;;;;;;10.13;5.97;;;4.40;99.90;;;;;;5115485;28;20071;-50
2023/01/23 12:39:34;;;;;;;11.10;5.97;;;4.40;99.90;;;;;;5132362;28;20043;-53
2023/01/23 12:42:05;;;;;;;9.87;5.53;;;4.40;99.90;;;;;;5132063;28;20079;-50
2023/01/23 12:44:47;;;;;;;9.15;5.30;;;4.30;99.90;;;;;;5114126;28;20042;-50
2023/01/23 12:47:19;;;;;;;9.30;4.93;;;4.30;99.90;;;;;;5132783;28;20070;-51
2023/01/23 12:49:57;;;;;;;10.10;5.32;;;4.30;99.90;;;;;;5114169;28;20050;-49
2023/01/23 12:52:32;;;;;;;8.98;4.95;;;4.30;99.90;;;;;;5132377;28;20548;-49
2023/01/23 12:55:22;;;;;;;9.23;5.47;;;4.40;99.90;;;;;;5148889;27;20083;-50
2023/01/23 12:57:53;;;;;;;8.40;5.30;;;4.40;99.90;;;;;;5135093;27;20390;-51
2023/01/23 13:00:57;;;;;;;8.45;4.05;;;4.30;99.90;;;;;;5157300;27;20064;-50
2023/01/23 13:03:48;;;;;;;8.63;5.40;;;4.30;99.90;;;;;;5156960;27;20035;-50
2023/01/23 13:06:48;;;;;;;9.90;5.30;;;4.30;99.90;;;;;;5156992;27;20049;-50
2023/01/23 13:09:49;;;;;;;8.55;4.53;;;4.40;99.90;;;;;;5035517;28;20048;-52
2023/01/23 13:12:26;;;;;;;10.48;5.03;;;4.30;99.90;;;;;;5141396;27;20114;-51